createdAt,value
2018-12-19T00:00:07.129Z,25.50
2018-12-19T00:00:39.699Z,24.63
2018-12-19T00:01:12.302Z,24.47
2018-12-19T00:01:44.909Z,24.67
2018-12-19T00:02:17.528Z,24.47
2018-12-19T00:02:50.092Z,25.90
2018-12-19T00:03:22.684Z,22.95
2018-12-19T00:03:55.318Z,24.95
2018-12-19T00:04:27.918Z,24.40
2018-12-19T00:05:00.481Z,25.02
2018-12-19T00:05:33.084Z,25.65
2018-12-19T00:06:05.692Z,24.50
2018-12-19T00:06:38.283Z,25.60
2018-12-19T00:07:10.863Z,26.30
2018-12-19T00:07:43.453Z,26.90
2018-12-19T00:08:16.049Z,25.82
2018-12-19T00:08:49.489Z,25.45
2018-12-19T00:09:22.076Z,26.37
2018-12-19T00:09:54.648Z,25.75
2018-12-19T00:10:27.224Z,24.57
2018-12-19T00:10:59.830Z,24.72
2018-12-19T00:11:32.437Z,25.80
2018-12-19T00:12:05.021Z,24.72
2018-12-19T00:12:37.591Z,24.45
2018-12-19T00:13:14.751Z,24.92
2018-12-19T00:13:47.325Z,25.88
2018-12-19T00:14:19.924Z,24.00
2018-12-19T00:14:52.526Z,25.40
2018-12-19T00:15:25.121Z,25.72
2018-12-19T00:15:57.721Z,23.90
2018-12-19T00:16:30.281Z,24.05
2018-12-19T00:17:02.845Z,25.32
2018-12-19T00:17:35.415Z,26.40
2018-12-19T00:18:07.997Z,26.30
2018-12-19T00:18:40.609Z,24.02
2018-12-19T00:19:13.205Z,26.17
2018-12-19T00:19:45.786Z,26.10
2018-12-19T00:20:18.383Z,26.97
2018-12-19T00:20:50.958Z,25.32
2018-12-19T00:21:23.508Z,25.15
2018-12-19T00:21:56.132Z,25.62
2018-12-19T00:22:28.799Z,26.10
2018-12-19T00:23:01.405Z,27.73
2018-12-19T00:23:33.976Z,25.62
2018-12-19T00:24:06.607Z,24.63
2018-12-19T00:24:39.175Z,25.15
2018-12-19T00:25:11.752Z,26.68
2018-12-19T00:25:44.360Z,28.30
2018-12-19T00:26:16.931Z,26.15
2018-12-19T00:26:49.527Z,25.48
2018-12-19T00:27:22.102Z,25.43
2018-12-19T00:27:54.801Z,26.30
2018-12-19T00:28:27.354Z,26.55
2018-12-19T00:28:59.950Z,30.45
2018-12-19T00:29:32.557Z,27.02
2018-12-19T00:30:05.363Z,25.40
2018-12-19T00:30:37.945Z,28.62
2018-12-19T00:31:10.521Z,28.57
2018-12-19T00:31:43.101Z,26.42
2018-12-19T00:32:15.695Z,26.65
2018-12-19T00:32:48.301Z,26.62
2018-12-19T00:33:20.876Z,27.70
2018-12-19T00:33:53.451Z,28.92
2018-12-19T00:34:28.689Z,28.73
2018-12-19T00:35:01.362Z,26.00
2018-12-19T00:35:33.954Z,26.62
2018-12-19T00:36:06.544Z,28.55
2018-12-19T00:36:39.123Z,26.80
2018-12-19T00:37:11.718Z,28.65
2018-12-19T00:37:44.302Z,27.25
2018-12-19T00:38:16.905Z,28.55
2018-12-19T00:38:49.477Z,28.17
2018-12-19T00:39:22.075Z,30.40
2018-12-19T00:39:54.670Z,27.77
2018-12-19T00:40:27.268Z,28.27
2018-12-19T00:40:59.852Z,28.98
2018-12-19T00:41:32.409Z,27.85
2018-12-19T00:42:05.007Z,29.07
2018-12-19T00:42:37.595Z,28.07
2018-12-19T00:43:10.498Z,29.30
2018-12-19T00:43:43.112Z,27.67
2018-12-19T00:44:15.714Z,27.10
2018-12-19T00:44:48.316Z,28.15
2018-12-19T00:45:21.038Z,26.85
2018-12-19T00:45:53.653Z,29.07
2018-12-19T00:46:26.267Z,30.23
2018-12-19T00:46:58.838Z,28.90
2018-12-19T00:47:31.425Z,29.52
2018-12-19T00:48:04.001Z,30.25
2018-12-19T00:48:36.643Z,30.05
2018-12-19T00:49:09.247Z,30.00
2018-12-19T00:49:41.835Z,31.02
2018-12-19T00:50:14.428Z,30.20
2018-12-19T00:50:47.009Z,30.30
2018-12-19T00:51:19.633Z,31.30
2018-12-19T00:51:52.345Z,30.37
2018-12-19T00:52:24.920Z,30.05
2018-12-19T00:52:57.509Z,31.50
2018-12-19T00:53:30.075Z,29.80
2018-12-19T00:54:02.683Z,30.15
2018-12-19T00:54:35.286Z,31.02
2018-12-19T00:55:07.990Z,30.90
2018-12-19T00:55:40.591Z,31.85
2018-12-19T00:56:13.178Z,29.90
2018-12-19T00:56:45.776Z,31.87
2018-12-19T00:57:18.355Z,29.32
2018-12-19T00:57:50.942Z,30.88
2018-12-19T00:58:23.554Z,30.75
2018-12-19T00:58:56.173Z,30.50
2018-12-19T00:59:28.732Z,30.15
2018-12-19T01:00:01.365Z,30.48
2018-12-19T01:00:33.990Z,31.60
2018-12-19T01:01:06.587Z,32.45
2018-12-19T01:01:39.196Z,30.37
2018-12-19T01:02:11.803Z,30.27
2018-12-19T01:02:44.444Z,29.30
2018-12-19T01:03:17.110Z,30.05
2018-12-19T01:03:49.739Z,31.95
2018-12-19T01:04:22.353Z,32.17
2018-12-19T01:04:54.969Z,30.00
2018-12-19T01:05:27.590Z,30.12
2018-12-19T01:06:00.182Z,30.82
2018-12-19T01:06:32.752Z,29.63
2018-12-19T01:07:05.333Z,31.15
2018-12-19T01:07:37.978Z,28.95
2018-12-19T01:08:10.556Z,28.38
2018-12-19T01:08:43.153Z,28.87
2018-12-19T01:09:16.037Z,29.50
2018-12-19T01:09:48.745Z,27.82
2018-12-19T01:10:21.463Z,29.48
2018-12-19T01:10:54.028Z,27.98
2018-12-19T01:11:26.621Z,29.50
2018-12-19T01:11:59.206Z,30.32
2018-12-19T01:12:31.800Z,27.32
2018-12-19T01:13:04.478Z,29.15
2018-12-19T01:13:37.497Z,28.52
2018-12-19T01:14:10.065Z,27.85
2018-12-19T01:14:42.689Z,27.37
2018-12-19T01:15:15.271Z,27.58
2018-12-19T01:15:47.841Z,28.45
2018-12-19T01:16:20.406Z,28.75
2018-12-19T01:16:53.002Z,27.15
2018-12-19T01:17:25.566Z,26.45
2018-12-19T01:17:58.150Z,28.57
2018-12-19T01:18:30.766Z,26.85
2018-12-19T01:19:03.368Z,26.90
2018-12-19T01:19:35.951Z,27.82
2018-12-19T01:20:08.569Z,29.72
2018-12-19T01:20:41.170Z,28.20
2018-12-19T01:21:13.753Z,27.05
2018-12-19T01:21:46.345Z,28.00
2018-12-19T01:22:18.913Z,27.25
2018-12-19T01:22:51.514Z,27.27
2018-12-19T01:23:24.113Z,28.07
2018-12-19T01:23:56.734Z,25.15
2018-12-19T01:24:29.334Z,27.67
2018-12-19T01:25:01.963Z,26.07
2018-12-19T01:25:34.556Z,26.82
2018-12-19T01:26:07.163Z,26.48
2018-12-19T01:26:39.762Z,27.90
2018-12-19T01:27:12.347Z,27.50
2018-12-19T01:27:44.937Z,29.25
2018-12-19T01:28:17.510Z,27.80
2018-12-19T01:28:50.072Z,27.37
2018-12-19T01:29:22.689Z,25.92
2018-12-19T01:29:55.266Z,25.48
2018-12-19T01:30:27.909Z,25.45
2018-12-19T01:31:00.498Z,25.80
2018-12-19T01:31:33.107Z,26.40
2018-12-19T01:32:05.723Z,26.33
2018-12-19T01:32:38.313Z,26.15
2018-12-19T01:33:10.887Z,25.97
2018-12-19T01:33:43.465Z,26.70
2018-12-19T01:34:16.066Z,24.32
2018-12-19T01:34:48.671Z,26.68
2018-12-19T01:35:21.266Z,26.12
2018-12-19T01:35:53.857Z,27.10
2018-12-19T01:36:26.436Z,25.20
2018-12-19T01:36:59.023Z,25.82
2018-12-19T01:37:31.623Z,24.77
2018-12-19T01:38:04.245Z,26.73
2018-12-19T01:38:36.834Z,26.35
2018-12-19T01:39:09.427Z,26.73
2018-12-19T01:39:41.999Z,25.23
2018-12-19T01:40:14.618Z,25.80
2018-12-19T01:40:47.213Z,28.27
2018-12-19T01:41:19.771Z,26.02
2018-12-19T01:41:52.403Z,27.58
2018-12-19T01:42:25.058Z,28.17
2018-12-19T01:42:57.677Z,26.42
2018-12-19T01:43:30.280Z,27.32
2018-12-19T01:44:03.072Z,24.90
2018-12-19T01:44:35.652Z,26.95
2018-12-19T01:45:08.294Z,26.48
2018-12-19T01:45:40.907Z,25.85
2018-12-19T01:46:13.494Z,26.17
2018-12-19T01:46:46.093Z,25.97
2018-12-19T01:47:18.687Z,28.42
2018-12-19T01:47:51.322Z,27.10
2018-12-19T01:48:23.893Z,25.80
2018-12-19T01:48:56.465Z,27.05
2018-12-19T01:49:29.047Z,26.37
2018-12-19T01:50:01.633Z,27.05
2018-12-19T01:50:34.226Z,28.40
2018-12-19T01:51:06.824Z,26.00
2018-12-19T01:51:39.528Z,25.70
2018-12-19T01:52:12.100Z,25.17
2018-12-19T01:52:44.674Z,25.55
2018-12-19T01:53:17.253Z,26.57
2018-12-19T01:53:49.856Z,26.62
2018-12-19T01:54:22.442Z,27.20
2018-12-19T01:54:55.038Z,27.32
2018-12-19T01:55:27.631Z,27.20
2018-12-19T01:56:00.334Z,24.43
2018-12-19T01:56:32.933Z,26.40
2018-12-19T01:57:05.547Z,27.42
2018-12-19T01:57:38.181Z,26.48
2018-12-19T01:58:10.770Z,25.20
2018-12-19T01:58:43.372Z,25.90
2018-12-19T01:59:15.988Z,26.65
2018-12-19T01:59:48.566Z,24.77
2018-12-19T02:00:25.822Z,26.33
2018-12-19T02:00:58.414Z,26.15
2018-12-19T02:01:31.020Z,24.92
2018-12-19T02:02:03.737Z,25.30
2018-12-19T02:02:36.316Z,25.10
2018-12-19T02:03:08.909Z,27.82
2018-12-19T02:03:41.486Z,25.62
2018-12-19T02:04:14.078Z,24.50
2018-12-19T02:04:46.677Z,26.55
2018-12-19T02:05:19.263Z,25.50
2018-12-19T02:05:51.848Z,25.35
2018-12-19T02:06:24.427Z,25.92
2018-12-19T02:06:57.019Z,25.45
2018-12-19T02:07:29.623Z,25.75
2018-12-19T02:08:02.196Z,26.17
2018-12-19T02:08:34.769Z,24.45
2018-12-19T02:09:07.942Z,25.90
2018-12-19T02:09:40.524Z,24.40
2018-12-19T02:10:13.081Z,26.42
2018-12-19T02:10:45.645Z,24.12
2018-12-19T02:11:18.230Z,26.17
2018-12-19T02:11:51.063Z,24.27
2018-12-19T02:12:23.667Z,24.65
2018-12-19T02:12:56.279Z,23.65
2018-12-19T02:13:28.864Z,25.88
2018-12-19T02:14:01.450Z,25.40
2018-12-19T02:14:34.024Z,24.87
2018-12-19T02:15:06.735Z,26.25
2018-12-19T02:15:39.325Z,25.08
2018-12-19T02:16:11.913Z,24.75
2018-12-19T02:16:44.526Z,25.50
2018-12-19T02:17:17.108Z,26.20
2018-12-19T02:17:49.682Z,25.52
2018-12-19T02:18:22.286Z,25.90
2018-12-19T02:18:54.891Z,24.57
2018-12-19T02:19:27.484Z,25.20
2018-12-19T02:20:00.085Z,25.50
2018-12-19T02:20:32.678Z,22.98
2018-12-19T02:21:05.282Z,24.60
2018-12-19T02:21:37.855Z,26.15
2018-12-19T02:22:10.465Z,24.80
2018-12-19T02:22:43.322Z,25.43
2018-12-19T02:23:15.932Z,24.63
2018-12-19T02:23:48.567Z,25.12
2018-12-19T02:24:21.180Z,24.35
2018-12-19T02:24:53.766Z,22.67
2018-12-19T02:25:26.343Z,23.92
2018-12-19T02:25:58.922Z,26.00
2018-12-19T02:26:31.516Z,25.37
2018-12-19T02:27:04.100Z,24.18
2018-12-19T02:27:36.703Z,25.65
2018-12-19T02:28:09.306Z,25.90
2018-12-19T02:28:41.911Z,24.43
2018-12-19T02:29:14.526Z,25.80
2018-12-19T02:29:47.110Z,25.77
2018-12-19T02:30:19.697Z,25.45
2018-12-19T02:30:52.252Z,24.55
2018-12-19T02:31:24.852Z,24.75
2018-12-19T02:31:57.427Z,24.37
2018-12-19T02:32:29.999Z,25.45
2018-12-19T02:33:02.642Z,25.40
2018-12-19T02:33:35.222Z,25.25
2018-12-19T02:34:07.930Z,25.75
2018-12-19T02:34:40.564Z,26.25
2018-12-19T02:35:13.182Z,25.30
2018-12-19T02:35:45.760Z,26.10
2018-12-19T02:36:18.571Z,25.68
2018-12-19T02:36:51.166Z,25.82
2018-12-19T02:37:23.746Z,25.23
2018-12-19T02:37:56.337Z,25.30
2018-12-19T02:38:28.915Z,24.95
2018-12-19T02:39:01.493Z,25.95
2018-12-19T02:39:36.362Z,27.30
2018-12-19T02:40:08.755Z,24.50
2018-12-19T02:40:41.331Z,25.27
2018-12-19T02:41:13.911Z,26.23
2018-12-19T02:41:46.557Z,24.95
2018-12-19T02:42:19.150Z,26.15
2018-12-19T02:42:51.746Z,26.20
2018-12-19T02:43:24.352Z,25.57
2018-12-19T02:43:56.957Z,25.65
2018-12-19T02:44:29.563Z,24.90
2018-12-19T02:45:02.181Z,25.35
2018-12-19T02:45:34.815Z,24.75
2018-12-19T02:46:07.390Z,25.30
2018-12-19T02:46:39.970Z,25.17
2018-12-19T02:47:12.573Z,26.80
2018-12-19T02:47:45.163Z,24.55
2018-12-19T02:48:17.769Z,26.00
2018-12-19T02:48:50.356Z,26.68
2018-12-19T02:49:22.944Z,25.72
2018-12-19T02:49:55.517Z,25.55
2018-12-19T02:50:28.106Z,24.90
2018-12-19T02:51:00.714Z,25.32
2018-12-19T02:51:33.328Z,25.62
2018-12-19T02:52:05.889Z,27.80
2018-12-19T02:52:38.468Z,25.97
2018-12-19T02:53:11.036Z,25.85
2018-12-19T02:53:43.596Z,25.15
2018-12-19T02:54:16.174Z,26.62
2018-12-19T02:54:48.753Z,26.85
2018-12-19T02:55:21.334Z,25.90
2018-12-19T02:55:53.947Z,25.88
2018-12-19T02:56:26.563Z,26.25
2018-12-19T02:56:59.156Z,27.02
2018-12-19T02:57:31.754Z,26.73
2018-12-19T02:58:04.337Z,28.23
2018-12-19T02:58:36.942Z,26.27
2018-12-19T02:59:09.521Z,26.02
2018-12-19T02:59:42.104Z,25.50
2018-12-19T03:00:14.700Z,27.02
2018-12-19T03:00:47.312Z,26.80
2018-12-19T03:01:19.906Z,26.73
2018-12-19T03:01:52.548Z,27.60
2018-12-19T03:02:25.134Z,27.48
2018-12-19T03:02:57.702Z,27.70
2018-12-19T03:03:30.300Z,27.27
2018-12-19T03:04:03.003Z,25.43
2018-12-19T03:04:35.593Z,27.30
2018-12-19T03:05:08.219Z,27.25
2018-12-19T03:05:40.813Z,27.58
2018-12-19T03:06:13.398Z,28.77
2018-12-19T03:06:45.989Z,28.12
2018-12-19T03:07:18.591Z,26.85
2018-12-19T03:07:51.194Z,24.95
2018-12-19T03:08:23.788Z,28.77
2018-12-19T03:08:56.392Z,27.27
2018-12-19T03:09:28.961Z,28.95
2018-12-19T03:10:01.585Z,26.80
2018-12-19T03:10:34.174Z,27.85
2018-12-19T03:11:06.801Z,30.68
2018-12-19T03:11:39.384Z,27.82
2018-12-19T03:12:11.997Z,28.27
2018-12-19T03:12:44.606Z,27.17
2018-12-19T03:13:17.211Z,28.62
2018-12-19T03:13:52.707Z,27.85
2018-12-19T03:14:25.287Z,25.85
2018-12-19T03:14:57.887Z,28.38
2018-12-19T03:15:30.484Z,27.05
2018-12-19T03:16:03.068Z,27.85
2018-12-19T03:16:35.766Z,28.00
2018-12-19T03:17:08.363Z,29.23
2018-12-19T03:17:40.970Z,29.92
2018-12-19T03:18:13.596Z,29.80
2018-12-19T03:18:46.189Z,28.67
2018-12-19T03:19:18.794Z,28.98
2018-12-19T03:19:51.394Z,29.72
2018-12-19T03:20:24.016Z,30.15
2018-12-19T03:20:56.605Z,29.65
2018-12-19T03:21:29.332Z,28.15
2018-12-19T03:22:01.933Z,29.05
2018-12-19T03:22:34.577Z,29.57
2018-12-19T03:23:07.190Z,30.10
2018-12-19T03:23:39.801Z,32.20
2018-12-19T03:24:12.381Z,28.83
2018-12-19T03:24:44.969Z,30.25
2018-12-19T03:25:17.559Z,31.05
2018-12-19T03:25:50.144Z,29.07
2018-12-19T03:26:22.725Z,28.85
2018-12-19T03:26:55.372Z,30.08
2018-12-19T03:27:27.973Z,31.00
2018-12-19T03:28:00.570Z,30.60
2018-12-19T03:28:33.159Z,29.57
2018-12-19T03:29:05.755Z,29.40
2018-12-19T03:29:38.345Z,31.85
2018-12-19T03:30:10.937Z,31.05
2018-12-19T03:30:43.566Z,30.27
2018-12-19T03:31:16.282Z,32.00
2018-12-19T03:31:50.851Z,30.20
2018-12-19T03:32:23.538Z,30.15
2018-12-19T03:32:56.121Z,29.23
2018-12-19T03:33:28.750Z,30.25
2018-12-19T03:34:01.368Z,28.67
2018-12-19T03:34:33.998Z,29.37
2018-12-19T03:35:06.628Z,28.65
2018-12-19T03:35:39.269Z,30.40
2018-12-19T03:36:11.915Z,28.85
2018-12-19T03:36:44.545Z,29.07
2018-12-19T03:37:17.167Z,31.07
2018-12-19T03:37:49.817Z,28.77
2018-12-19T03:38:23.279Z,31.20
2018-12-19T03:38:55.877Z,29.80
2018-12-19T03:39:28.509Z,29.15
2018-12-19T03:40:01.170Z,30.72
2018-12-19T03:40:33.819Z,28.87
2018-12-19T03:41:06.588Z,30.20
2018-12-19T03:41:39.203Z,30.57
2018-12-19T03:42:11.958Z,27.48
2018-12-19T03:42:44.597Z,30.45
2018-12-19T03:43:17.263Z,30.10
2018-12-19T03:43:49.884Z,28.92
2018-12-19T03:44:22.502Z,27.87
2018-12-19T03:44:55.130Z,29.45
2018-12-19T03:45:27.785Z,31.25
2018-12-19T03:46:00.389Z,29.20
2018-12-19T03:46:33.007Z,26.55
2018-12-19T03:47:05.618Z,29.57
2018-12-19T03:47:38.263Z,28.23
2018-12-19T03:48:15.490Z,27.80
2018-12-19T03:48:53.681Z,31.50
2018-12-19T03:49:26.448Z,28.10
2018-12-19T03:49:59.101Z,30.82
2018-12-19T03:50:31.759Z,29.35
2018-12-19T03:51:04.416Z,27.55
2018-12-19T03:51:37.030Z,29.77
2018-12-19T03:52:09.645Z,28.70
2018-12-19T03:52:42.269Z,28.92
2018-12-19T03:53:14.897Z,28.67
2018-12-19T03:53:47.536Z,31.40
2018-12-19T03:54:20.174Z,29.60
2018-12-19T03:54:52.813Z,30.45
2018-12-19T03:55:25.444Z,30.37
2018-12-19T03:55:58.110Z,30.37
2018-12-19T03:56:30.766Z,30.48
2018-12-19T03:57:04.872Z,29.45
2018-12-19T03:57:37.522Z,30.30
2018-12-19T03:58:10.172Z,30.90
2018-12-19T03:58:42.810Z,29.30
2018-12-19T03:59:15.412Z,28.50
2018-12-19T04:00:48.648Z,29.60
2018-12-19T04:01:21.285Z,29.00
2018-12-19T04:01:53.891Z,29.15
2018-12-19T04:02:26.487Z,31.37
2018-12-19T04:02:59.097Z,30.60
2018-12-19T04:03:31.703Z,29.55
2018-12-19T04:04:04.323Z,29.95
2018-12-19T04:04:36.935Z,32.08
2018-12-19T04:05:09.558Z,29.98
2018-12-19T04:05:42.173Z,29.98
2018-12-19T04:06:15.112Z,29.75
2018-12-19T04:06:47.776Z,31.05
2018-12-19T04:07:20.416Z,31.37
2018-12-19T04:07:53.031Z,30.70
2018-12-19T04:08:25.643Z,32.33
2018-12-19T04:08:58.270Z,30.52
2018-12-19T04:09:30.890Z,32.58
2018-12-19T04:10:04.733Z,31.87
2018-12-19T04:10:37.352Z,29.40
2018-12-19T04:11:10.007Z,29.90
2018-12-19T04:11:42.620Z,31.68
2018-12-19T04:12:15.270Z,31.20
2018-12-19T04:12:47.931Z,33.23
2018-12-19T04:13:20.518Z,35.35
2018-12-19T04:13:53.171Z,29.60
2018-12-19T04:14:25.863Z,32.23
2018-12-19T04:14:58.505Z,33.67
2018-12-19T04:15:31.258Z,34.25
2018-12-19T04:16:03.985Z,30.15
2018-12-19T04:16:36.731Z,33.35
2018-12-19T04:17:09.375Z,31.97
2018-12-19T04:17:42.023Z,32.25
2018-12-19T04:18:14.672Z,33.33
2018-12-19T04:18:47.298Z,33.38
2018-12-19T04:19:19.926Z,32.83
2018-12-19T04:19:52.565Z,32.28
2018-12-19T04:20:25.167Z,33.25
2018-12-19T04:20:57.819Z,32.67
2018-12-19T04:21:30.465Z,31.93
2018-12-19T04:22:03.073Z,32.53
2018-12-19T04:22:35.690Z,32.98
2018-12-19T04:23:08.340Z,33.20
2018-12-19T04:23:40.950Z,35.00
2018-12-19T04:24:13.582Z,33.88
2018-12-19T04:24:46.205Z,32.70
2018-12-19T04:25:18.837Z,33.85
2018-12-19T04:25:51.463Z,34.20
2018-12-19T04:26:24.106Z,36.20
2018-12-19T04:26:56.752Z,35.58
2018-12-19T04:27:29.373Z,33.58
2018-12-19T04:28:02.290Z,33.20
2018-12-19T04:28:34.910Z,36.70
2018-12-19T04:29:07.520Z,34.53
2018-12-19T04:29:40.268Z,36.08
2018-12-19T04:30:12.896Z,36.83
2018-12-19T04:30:45.504Z,34.10
2018-12-19T04:31:18.130Z,36.35
2018-12-19T04:31:50.752Z,34.88
2018-12-19T04:32:23.539Z,35.10
2018-12-19T04:32:56.294Z,35.73
2018-12-19T04:33:28.935Z,35.90
2018-12-19T04:34:01.587Z,35.40
2018-12-19T04:34:34.209Z,34.33
2018-12-19T04:35:06.841Z,36.53
2018-12-19T04:35:39.602Z,36.70
2018-12-19T04:36:12.221Z,36.05
2018-12-19T04:36:44.864Z,35.33
2018-12-19T04:37:17.578Z,37.63
2018-12-19T04:37:50.203Z,35.23
2018-12-19T04:38:22.846Z,35.85
2018-12-19T04:38:55.491Z,34.83
2018-12-19T04:39:28.169Z,36.23
2018-12-19T04:40:05.365Z,37.58
2018-12-19T04:40:35.394Z,34.27
2018-12-19T04:41:07.985Z,35.48
2018-12-19T04:41:40.644Z,35.75
2018-12-19T04:42:13.285Z,35.17
2018-12-19T04:42:47.725Z,36.40
2018-12-19T04:43:20.918Z,34.78
2018-12-19T04:43:53.532Z,32.67
2018-12-19T04:44:26.164Z,34.55
2018-12-19T04:44:58.796Z,34.78
2018-12-19T04:45:31.436Z,35.23
2018-12-19T04:46:04.058Z,34.73
2018-12-19T04:46:36.708Z,36.30
2018-12-19T04:47:09.354Z,33.15
2018-12-19T04:47:41.952Z,38.05
2018-12-19T04:48:14.676Z,34.75
2018-12-19T04:48:47.262Z,36.30
2018-12-19T04:49:19.884Z,33.65
2018-12-19T04:49:52.521Z,33.55
2018-12-19T04:50:25.171Z,34.23
2018-12-19T04:50:57.786Z,34.85
2018-12-19T04:51:30.368Z,34.03
2018-12-19T04:52:02.966Z,34.60
2018-12-19T04:52:35.618Z,34.73
2018-12-19T04:53:08.281Z,35.65
2018-12-19T04:53:40.876Z,34.83
2018-12-19T04:54:13.484Z,37.30
2018-12-19T04:54:46.113Z,33.83
2018-12-19T04:55:18.809Z,36.38
2018-12-19T04:55:51.457Z,37.45
2018-12-19T04:56:24.083Z,35.68
2018-12-19T04:56:56.702Z,33.80
2018-12-19T04:57:29.319Z,34.10
2018-12-19T04:58:01.940Z,34.45
2018-12-19T04:58:34.596Z,38.50
2018-12-19T04:59:07.230Z,35.28
2018-12-19T04:59:40.347Z,37.95
2018-12-19T05:00:13.147Z,37.33
2018-12-19T05:00:45.807Z,36.65
2018-12-19T05:01:18.484Z,35.70
2018-12-19T05:01:51.093Z,35.60
2018-12-19T05:02:23.742Z,36.38
2018-12-19T05:02:56.390Z,36.20
2018-12-19T05:03:29.058Z,33.85
2018-12-19T05:04:01.673Z,34.98
2018-12-19T05:04:34.263Z,36.25
2018-12-19T05:05:06.925Z,34.33
2018-12-19T05:05:39.569Z,34.40
2018-12-19T05:06:12.187Z,34.05
2018-12-19T05:06:45.010Z,38.83
2018-12-19T05:07:18.889Z,35.28
2018-12-19T05:07:51.618Z,35.95
2018-12-19T05:08:24.222Z,36.45
2018-12-19T05:08:56.823Z,35.38
2018-12-19T05:09:30.052Z,36.08
2018-12-19T05:10:02.797Z,36.45
2018-12-19T05:10:35.515Z,35.48
2018-12-19T05:11:08.106Z,35.00
2018-12-19T05:11:40.706Z,37.40
2018-12-19T05:12:13.323Z,36.83
2018-12-19T05:12:45.921Z,34.83
2018-12-19T05:13:18.522Z,35.30
2018-12-19T05:13:51.142Z,35.05
2018-12-19T05:14:23.949Z,35.45
2018-12-19T05:14:56.549Z,36.83
2018-12-19T05:15:29.153Z,36.55
2018-12-19T05:16:01.753Z,35.40
2018-12-19T05:16:34.357Z,36.20
2018-12-19T05:17:07.034Z,35.23
2018-12-19T05:17:39.700Z,38.70
2018-12-19T05:18:12.300Z,34.73
2018-12-19T05:18:44.881Z,34.88
2018-12-19T05:19:17.459Z,36.80
2018-12-19T05:19:50.177Z,37.35
2018-12-19T05:20:22.771Z,35.35
2018-12-19T05:20:55.383Z,35.35
2018-12-19T05:21:28.010Z,37.48
2018-12-19T05:22:00.592Z,35.83
2018-12-19T05:22:33.177Z,33.73
2018-12-19T05:23:05.784Z,36.73
2018-12-19T05:23:38.387Z,35.43
2018-12-19T05:24:10.988Z,34.63
2018-12-19T05:24:43.642Z,34.48
2018-12-19T05:25:16.212Z,35.60
2018-12-19T05:25:48.811Z,35.00
2018-12-19T05:26:21.416Z,34.13
2018-12-19T05:26:54.016Z,35.43
2018-12-19T05:27:26.646Z,35.98
2018-12-19T05:27:59.254Z,37.73
2018-12-19T05:28:31.893Z,35.30
2018-12-19T05:29:04.461Z,36.30
2018-12-19T05:29:37.057Z,38.10
2018-12-19T05:30:09.827Z,36.20
2018-12-19T05:30:42.436Z,36.33
2018-12-19T05:31:15.087Z,36.28
2018-12-19T05:31:47.686Z,35.70
2018-12-19T05:32:20.284Z,37.42
2018-12-19T05:32:52.892Z,38.80
2018-12-19T05:33:25.483Z,41.53
2018-12-19T05:33:58.088Z,39.95
2018-12-19T05:34:30.717Z,38.65
2018-12-19T05:35:04.027Z,41.50
2018-12-19T05:35:36.636Z,42.53
2018-12-19T05:36:09.229Z,42.40
2018-12-19T05:36:41.946Z,42.25
2018-12-19T05:37:14.585Z,37.75
2018-12-19T05:37:47.193Z,38.95
2018-12-19T05:38:19.831Z,37.48
2018-12-19T05:38:53.137Z,41.25
2018-12-19T05:39:25.788Z,38.67
2018-12-19T05:39:58.374Z,38.42
2018-12-19T05:40:31.336Z,34.83
2018-12-19T05:41:03.950Z,36.88
2018-12-19T05:41:36.636Z,37.33
2018-12-19T05:42:09.334Z,36.73
2018-12-19T05:42:41.913Z,35.88
2018-12-19T05:43:14.526Z,38.17
2018-12-19T05:43:47.116Z,36.08
2018-12-19T05:44:19.681Z,35.23
2018-12-19T05:44:52.334Z,37.03
2018-12-19T05:45:24.927Z,36.15
2018-12-19T05:45:57.530Z,35.83
2018-12-19T05:46:30.118Z,36.45
2018-12-19T05:47:02.712Z,39.60
2018-12-19T05:47:35.466Z,36.98
2018-12-19T05:48:08.058Z,36.73
2018-12-19T05:48:40.664Z,35.63
2018-12-19T05:49:13.342Z,36.73
2018-12-19T05:49:46.101Z,36.50
2018-12-19T05:50:21.144Z,35.52
2018-12-19T05:50:53.834Z,37.33
2018-12-19T05:51:26.425Z,37.60
2018-12-19T05:51:59.022Z,36.50
2018-12-19T05:52:31.802Z,35.80
2018-12-19T05:53:04.411Z,37.42
2018-12-19T05:53:36.998Z,36.95
2018-12-19T05:54:09.648Z,38.60
2018-12-19T05:54:42.295Z,37.00
2018-12-19T05:55:14.885Z,37.05
2018-12-19T05:55:47.529Z,38.00
2018-12-19T05:56:20.134Z,38.42
2018-12-19T05:56:52.734Z,35.68
2018-12-19T05:57:25.445Z,35.88
2018-12-19T05:57:58.080Z,37.73
2018-12-19T05:58:30.685Z,37.70
2018-12-19T05:59:03.362Z,35.95
2018-12-19T05:59:36.020Z,35.25
2018-12-19T06:00:08.645Z,34.95
2018-12-19T06:00:41.242Z,33.55
2018-12-19T06:01:13.971Z,34.88
2018-12-19T06:01:46.627Z,35.63
2018-12-19T06:02:20.148Z,35.85
2018-12-19T06:02:52.751Z,35.08
2018-12-19T06:03:25.374Z,34.60
2018-12-19T06:03:58.008Z,33.73
2018-12-19T06:04:30.707Z,36.08
2018-12-19T06:05:04.189Z,35.45
2018-12-19T06:05:36.805Z,33.75
2018-12-19T06:06:10.583Z,36.10
2018-12-19T06:06:43.207Z,32.75
2018-12-19T06:07:15.819Z,32.70
2018-12-19T06:07:48.423Z,34.67
2018-12-19T06:08:21.011Z,33.23
2018-12-19T06:08:53.596Z,33.25
2018-12-19T06:09:26.216Z,33.95
2018-12-19T06:09:58.920Z,35.23
2018-12-19T06:10:31.512Z,33.50
2018-12-19T06:11:04.207Z,36.13
2018-12-19T06:11:36.822Z,34.08
2018-12-19T06:12:09.508Z,34.85
2018-12-19T06:12:42.126Z,33.92
2018-12-19T06:13:14.720Z,34.85
2018-12-19T06:13:47.340Z,33.33
2018-12-19T06:14:19.961Z,36.55
2018-12-19T06:14:52.566Z,33.88
2018-12-19T06:15:25.178Z,37.08
2018-12-19T06:15:57.903Z,39.30
2018-12-19T06:16:30.562Z,37.95
2018-12-19T06:17:03.159Z,41.48
2018-12-19T06:17:35.831Z,37.95
2018-12-19T06:18:08.533Z,36.30
2018-12-19T06:18:41.140Z,36.48
2018-12-19T06:19:13.737Z,34.92
2018-12-19T06:19:46.332Z,34.55
2018-12-19T06:20:18.941Z,32.73
2018-12-19T06:20:51.566Z,33.40
2018-12-19T06:21:24.228Z,33.23
2018-12-19T06:21:56.880Z,32.98
2018-12-19T06:22:29.509Z,33.98
2018-12-19T06:23:02.138Z,32.53
2018-12-19T06:23:34.739Z,32.63
2018-12-19T06:24:07.359Z,32.03
2018-12-19T06:24:39.986Z,33.23
2018-12-19T06:25:12.600Z,33.35
2018-12-19T06:25:45.222Z,33.25
2018-12-19T06:26:17.808Z,34.78
2018-12-19T06:26:50.431Z,35.52
2018-12-19T06:27:23.042Z,33.63
2018-12-19T06:27:55.826Z,37.33
2018-12-19T06:28:28.446Z,38.15
2018-12-19T06:29:01.114Z,38.25
2018-12-19T06:29:33.726Z,36.80
2018-12-19T06:30:06.472Z,40.78
2018-12-19T06:30:39.067Z,40.28
2018-12-19T06:31:11.669Z,40.35
2018-12-19T06:31:44.274Z,39.70
2018-12-19T06:32:16.885Z,39.23
2018-12-19T06:32:49.621Z,36.38
2018-12-19T06:33:22.227Z,37.83
2018-12-19T06:33:55.006Z,37.85
2018-12-19T06:34:27.624Z,33.67
2018-12-19T06:35:00.210Z,36.13
2018-12-19T06:35:32.808Z,36.28
2018-12-19T06:36:05.559Z,34.67
2018-12-19T06:36:38.174Z,34.18
2018-12-19T06:37:10.767Z,35.03
2018-12-19T06:37:43.365Z,34.00
2018-12-19T06:38:15.980Z,34.98
2018-12-19T06:38:48.594Z,35.03
2018-12-19T06:39:21.355Z,35.23
2018-12-19T06:39:53.967Z,35.45
2018-12-19T06:40:32.496Z,35.50
2018-12-19T06:41:02.177Z,32.98
2018-12-19T06:41:35.298Z,34.25
2018-12-19T06:42:07.915Z,33.25
2018-12-19T06:42:40.663Z,32.30
2018-12-19T06:43:13.262Z,32.65
2018-12-19T06:43:45.893Z,33.92
2018-12-19T06:44:18.514Z,36.58
2018-12-19T06:44:51.168Z,34.43
2018-12-19T06:45:23.811Z,35.43
2018-12-19T06:45:56.402Z,33.85
2018-12-19T06:46:29.008Z,34.53
2018-12-19T06:47:01.581Z,35.60
2018-12-19T06:47:34.195Z,35.00
2018-12-19T06:48:06.808Z,35.90
2018-12-19T06:48:39.405Z,34.05
2018-12-19T06:49:11.983Z,34.78
2018-12-19T06:49:44.598Z,34.23
2018-12-19T06:50:17.256Z,35.70
2018-12-19T06:50:49.951Z,35.60
2018-12-19T06:51:22.565Z,33.63
2018-12-19T06:51:55.158Z,33.63
2018-12-19T06:52:27.748Z,34.35
2018-12-19T06:53:00.359Z,34.48
2018-12-19T06:53:32.966Z,33.38
2018-12-19T06:54:05.566Z,35.85
2018-12-19T06:54:38.157Z,33.38
2018-12-19T06:55:10.786Z,35.08
2018-12-19T06:55:43.439Z,33.60
2018-12-19T06:56:16.070Z,35.33
2018-12-19T06:56:48.681Z,32.05
2018-12-19T06:57:21.278Z,36.60
2018-12-19T06:57:53.889Z,34.10
2018-12-19T06:58:26.484Z,34.45
2018-12-19T06:58:59.078Z,34.63
2018-12-19T06:59:31.673Z,37.35
2018-12-19T07:00:06.402Z,39.65
2018-12-19T07:00:39.014Z,39.30
2018-12-19T07:01:11.668Z,38.48
2018-12-19T07:01:44.317Z,41.90